sensor_id;sensor_type;location;lat;lon;timestamp;pressure;altitude;pressure_sealevel;temperature;humidity
53270;BME280;39159;45.634;9.420;2023-08-06T00:01:37;97889.94;;;19.94;100.00
53270;BME280;39159;45.634;9.420;2023-08-06T00:04:02;97898.66;;;19.89;100.00
53270;BME280;39159;45.634;9.420;2023-08-06T00:06:28;97900.63;;;19.85;100.00
53270;BME280;39159;45.634;9.420;2023-08-06T00:08:53;97894.69;;;19.86;100.00
53270;BME280;39159;45.634;9.420;2023-08-06T00:11:20;97895.09;;;19.88;100.00
53270;BME280;39159;45.634;9.420;2023-08-06T00:13:45;97895.47;;;19.87;100.00
53270;BME280;39159;45.634;9.420;2023-08-06T00:16:12;97897.06;;;19.88;100.00
53270;BME280;39159;45.634;9.420;2023-08-06T00:18:38;97886.78;;;19.85;100.00
53270;BME280;39159;45.634;9.420;2023-08-06T00:21:04;97885.59;;;19.86;100.00
53270;BME280;39159;45.634;9.420;2023-08-06T00:23:29;97883.63;;;19.86;100.00
53270;BME280;39159;45.634;9.420;2023-08-06T00:25:55;97887.97;;;19.87;100.00
53270;BME280;39159;45.634;9.420;2023-08-06T00:28:20;97889.56;;;19.88;100.00
53270;BME280;39159;45.634;9.420;2023-08-06T00:30:46;97893.13;;;19.85;100.00
53270;BME280;39159;45.634;9.420;2023-08-06T00:33:11;97882.84;;;19.86;100.00
53270;BME280;39159;45.634;9.420;2023-08-06T00:35:36;97888.34;;;19.90;100.00
53270;BME280;39159;45.634;9.420;2023-08-06T00:38:02;97879.25;;;19.89;100.00
53270;BME280;39159;45.634;9.420;2023-08-06T00:40:27;97885.19;;;19.91;100.00
53270;BME280;39159;45.634;9.420;2023-08-06T00:42:55;97882.44;;;19.91;100.00
53270;BME280;39159;45.634;9.420;2023-08-06T00:45:21;97878.09;;;19.97;100.00
53270;BME280;39159;45.634;9.420;2023-08-06T00:47:47;97867.00;;;19.97;100.00
53270;BME280;39159;45.634;9.420;2023-08-06T00:50:13;97880.06;;;19.97;100.00
53270;BME280;39159;45.634;9.420;2023-08-06T00:52:38;97870.56;;;20.01;100.00
53270;BME280;39159;45.634;9.420;2023-08-06T00:55:06;97872.13;;;20.02;100.00
53270;BME280;39159;45.634;9.420;2023-08-06T00:57:31;97870.16;;;19.99;100.00
53270;BME280;39159;45.634;9.420;2023-08-06T00:59:57;97872.53;;;20.01;100.00
53270;BME280;39159;45.634;9.420;2023-08-06T01:02:23;97868.59;;;19.95;100.00
53270;BME280;39159;45.634;9.420;2023-08-06T01:04:48;97861.47;;;19.86;100.00
53270;BME280;39159;45.634;9.420;2023-08-06T01:12:53;97860.69;;;19.97;100.00
53270;BME280;39159;45.634;9.420;2023-08-06T01:15:29;97846.84;;;19.97;100.00
53270;BME280;39159;45.634;9.420;2023-08-06T01:17:58;97844.06;;;19.93;100.00
53270;BME280;39159;45.634;9.420;2023-08-06T01:20:28;97837.31;;;19.94;100.00
53270;BME280;39159;45.634;9.420;2023-08-06T01:22:54;97838.13;;;19.91;100.00
53270;BME280;39159;45.634;9.420;2023-08-06T01:25:21;97838.91;;;19.92;100.00
53270;BME280;39159;45.634;9.420;2023-08-06T01:27:53;97835.34;;;19.91;100.00
53270;BME280;39159;45.634;9.420;2023-08-06T01:30:28;97832.97;;;20.04;100.00
53270;BME280;39159;45.634;9.420;2023-08-06T01:32:59;97847.59;;;20.01;100.00
53270;BME280;39159;45.634;9.420;2023-08-06T01:35:26;97854.31;;;20.07;100.00
53270;BME280;39159;45.634;9.420;2023-08-06T01:37:53;97856.28;;;20.14;100.00
53270;BME280;39159;45.634;9.420;2023-08-06T01:40:19;97851.53;;;20.18;100.00
53270;BME280;39159;45.634;9.420;2023-08-06T01:42:45;97845.97;;;20.25;100.00
53270;BME280;39159;45.634;9.420;2023-08-06T01:45:10;97839.25;;;20.26;100.00
53270;BME280;39159;45.634;9.420;2023-08-06T01:47:36;97839.66;;;20.28;100.00
53270;BME280;39159;45.634;9.420;2023-08-06T01:50:01;97841.63;;;20.35;100.00
53270;BME280;39159;45.634;9.420;2023-08-06T01:52:27;97828.53;;;20.35;100.00
53270;BME280;39159;45.634;9.420;2023-08-06T01:54:53;97816.69;;;20.35;100.00
53270;BME280;39159;45.634;9.420;2023-08-06T01:57:19;97809.53;;;20.37;100.00
53270;BME280;39159;45.634;9.420;2023-08-06T01:59:44;97815.91;;;20.31;100.00
53270;BME280;39159;45.634;9.420;2023-08-06T02:02:10;97817.50;;;20.14;100.00
53270;BME280;39159;45.634;9.420;2023-08-06T02:04:35;97833.34;;;20.13;100.00
53270;BME280;39159;45.634;9.420;2023-08-06T02:07:00;97840.47;;;20.11;100.00
53270;BME280;39159;45.634;9.420;2023-08-06T02:09:26;97847.97;;;20.14;100.00
53270;BME280;39159;45.634;9.420;2023-08-06T02:11:51;97840.88;;;20.09;100.00
53270;BME280;39159;45.634;9.420;2023-08-06T02:14:17;97841.66;;;20.09;100.00
53270;BME280;39159;45.634;9.420;2023-08-06T02:16:42;97844.03;;;20.07;100.00
53270;BME280;39159;45.634;9.420;2023-08-06T02:19:08;97838.13;;;20.05;100.00
53270;BME280;39159;45.634;9.420;2023-08-06T02:21:33;97842.06;;;20.04;100.00
53270;BME280;39159;45.634;9.420;2023-08-06T02:23:58;97831.41;;;19.92;100.00
53270;BME280;39159;45.634;9.420;2023-08-06T02:26:24;97832.97;;;19.93;100.00
53270;BME280;39159;45.634;9.420;2023-08-06T02:28:49;97823.50;;;20.01;100.00
53270;BME280;39159;45.634;9.420;2023-08-06T02:31:15;97814.75;;;20.03;100.00
53270;BME280;39159;45.634;9.420;2023-08-06T02:33:40;97809.25;;;19.92;100.00
53270;BME280;39159;45.634;9.420;2023-08-06T02:36:06;97788.28;;;19.87;100.00
53270;BME280;39159;45.634;9.420;2023-08-06T02:38:31;97779.59;;;19.82;100.00
53270;BME280;39159;45.634;9.420;2023-08-06T02:40:57;97771.31;;;19.82;100.00
53270;BME280;39159;45.634;9.420;2023-08-06T02:43:22;97770.50;;;19.74;100.00
53270;BME280;39159;45.634;9.420;2023-08-06T02:45:48;97770.50;;;19.74;100.00
53270;BME280;39159;45.634;9.420;2023-08-06T02:48:13;97774.09;;;19.71;100.00
53270;BME280;39159;45.634;9.420;2023-08-06T02:50:40;97776.47;;;19.48;100.00
53270;BME280;39159;45.634;9.420;2023-08-06T02:53:06;97771.72;;;19.48;100.00
53270;BME280;39159;45.634;9.420;2023-08-06T02:55:32;97764.19;;;19.45;100.00
53270;BME280;39159;45.634;9.420;2023-08-06T02:57:59;97769.31;;;19.43;100.00
53270;BME280;39159;45.634;9.420;2023-08-06T03:00:25;97775.66;;;19.36;100.00
53270;BME280;39159;45.634;9.420;2023-08-06T03:02:50;97775.28;;;19.34;100.00
53270;BME280;39159;45.634;9.420;2023-08-06T03:05:16;97776.44;;;19.33;100.00
53270;BME280;39159;45.634;9.420;2023-08-06T03:07:41;97777.22;;;19.23;100.00
53270;BME280;39159;45.634;9.420;2023-08-06T03:10:07;97768.53;;;19.10;100.00
53270;BME280;39159;45.634;9.420;2023-08-06T03:12:32;97765.75;;;19.07;100.00
53270;BME280;39159;45.634;9.420;2023-08-06T03:14:58;97761.81;;;19.04;100.00
53270;BME280;39159;45.634;9.420;2023-08-06T03:17:23;97763.00;;;19.07;100.00
53270;BME280;39159;45.634;9.420;2023-08-06T03:19:49;97764.19;;;19.09;100.00
53270;BME280;39159;45.634;9.420;2023-08-06T03:22:14;97756.66;;;19.10;100.00
53270;BME280;39159;45.634;9.420;2023-08-06T03:24:40;97749.19;;;19.10;100.00
53270;BME280;39159;45.634;9.420;2023-08-06T03:27:05;97756.28;;;19.11;100.00
53270;BME280;39159;45.634;9.420;2023-08-06T03:29:30;97749.19;;;19.10;100.00
53270;BME280;39159;45.634;9.420;2023-08-06T03:31:56;97753.50;;;19.00;100.00
53270;BME280;39159;45.634;9.420;2023-08-06T03:34:21;97751.91;;;18.96;100.00
53270;BME280;39159;45.634;9.420;2023-08-06T03:36:47;97747.94;;;18.82;100.00
53270;BME280;39159;45.634;9.420;2023-08-06T03:39:12;97753.81;;;18.74;100.00
53270;BME280;39159;45.634;9.420;2023-08-06T03:41:39;97758.94;;;18.72;100.00
53270;BME280;39159;45.634;9.420;2023-08-06T03:44:05;97757.41;;;18.74;100.00
53270;BME280;39159;45.634;9.420;2023-08-06T03:46:30;97751.50;;;18.79;100.00
53270;BME280;39159;45.634;9.420;2023-08-06T03:49:00;97757.03;;;18.87;100.00
53270;BME280;39159;45.634;9.420;2023-08-06T03:51:25;97754.31;;;18.90;100.00
53270;BME280;39159;45.634;9.420;2023-08-06T03:53:50;97758.66;;;18.88;100.00
53270;BME280;39159;45.634;9.420;2023-08-06T03:56:16;97750.72;;;18.82;100.00
53270;BME280;39159;45.634;9.420;2023-08-06T03:58:41;97745.19;;;18.79;100.00
53270;BME280;39159;45.634;9.420;2023-08-06T04:01:07;97741.63;;;18.82;100.00
53270;BME280;39159;45.634;9.420;2023-08-06T04:03:32;97740.47;;;18.79;100.00
53270;BME280;39159;45.634;9.420;2023-08-06T04:05:58;97750.72;;;18.79;100.00
53270;BME280;39159;45.634;9.420;2023-08-06T04:08:23;97766.06;;;18.69;100.00
53270;BME280;39159;45.634;9.420;2023-08-06T04:10:52;97773.94;;;18.60;100.00
53270;BME280;39159;45.634;9.420;2023-08-06T04:13:18;97764.06;;;18.59;100.00
53270;BME280;39159;45.634;9.420;2023-08-06T04:15:43;97766.00;;;18.44;100.00
53270;BME280;39159;45.634;9.420;2023-08-06T04:18:09;97771.88;;;18.42;100.00
53270;BME280;39159;45.634;9.420;2023-08-06T04:20:34;97766.38;;;18.50;100.00
53270;BME280;39159;45.634;9.420;2023-08-06T04:23:06;97766.81;;;18.55;100.00
53270;BME280;39159;45.634;9.420;2023-08-06T04:25:31;97758.91;;;18.50;100.00
53270;BME280;39159;45.634;9.420;2023-08-06T04:27:57;97765.63;;;18.53;100.00
53270;BME280;39159;45.634;9.420;2023-08-06T04:30:22;97759.72;;;18.54;100.00
53270;BME280;39159;45.634;9.420;2023-08-06T04:32:49;97759.34;;;18.59;100.00
53270;BME280;39159;45.634;9.420;2023-08-06T04:35:15;97760.88;;;18.53;100.00
53270;BME280;39159;45.634;9.420;2023-08-06T04:37:40;97760.88;;;18.53;100.00
53270;BME280;39159;45.634;9.420;2023-08-06T04:40:06;97754.19;;;18.58;100.00
53270;BME280;39159;45.634;9.420;2023-08-06T04:42:31;97758.16;;;18.64;100.00
53270;BME280;39159;45.634;9.420;2023-08-06T04:44:57;97759.72;;;18.54;100.00
53270;BME280;39159;45.634;9.420;2023-08-06T04:47:22;97771.88;;;18.42;100.00
53270;BME280;39159;45.634;9.420;2023-08-06T04:49:48;97763.19;;;18.33;100.00
53270;BME280;39159;45.634;9.420;2023-08-06T04:52:13;97773.41;;;18.26;100.00
53270;BME280;39159;45.634;9.420;2023-08-06T04:54:39;97773.78;;;18.24;100.00
53270;BME280;39159;45.634;9.420;2023-08-06T04:57:04;97765.50;;;18.24;100.00
53270;BME280;39159;45.634;9.420;2023-08-06T04:59:30;97770.25;;;18.27;100.00
53270;BME280;39159;45.634;9.420;2023-08-06T05:01:55;97769.09;;;18.28;100.00
53270;BME280;39159;45.634;9.420;2023-08-06T05:04:21;97768.31;;;18.28;100.00
53270;BME280;39159;45.634;9.420;2023-08-06T05:06:47;97755.69;;;18.30;100.00
53270;BME280;39159;45.634;9.420;2023-08-06T05:09:13;97758.84;;;18.36;100.00
53270;BME280;39159;45.634;9.420;2023-08-06T05:11:38;97767.56;;;18.45;100.00
53270;BME280;39159;45.634;9.420;2023-08-06T05:14:04;97773.16;;;18.67;100.00
53270;BME280;39159;45.634;9.420;2023-08-06T05:16:29;97763.78;;;18.86;100.00
53270;BME280;39159;45.634;9.420;2023-08-06T05:18:54;97770.91;;;19.01;100.00
53270;BME280;39159;45.634;9.420;2023-08-06T05:21:20;97762.97;;;18.96;100.00
53270;BME280;39159;45.634;9.420;2023-08-06T05:23:45;97763.00;;;18.99;100.00
53270;BME280;39159;45.634;9.420;2023-08-06T05:26:11;97760.25;;;19.17;100.00
53270;BME280;39159;45.634;9.420;2023-08-06T05:28:36;97761.44;;;19.38;100.00
53270;BME280;39159;45.634;9.420;2023-08-06T05:31:05;97758.25;;;19.57;100.00
53270;BME280;39159;45.634;9.420;2023-08-06T05:33:30;97762.22;;;19.63;100.00
53270;BME280;39159;45.634;9.420;2023-08-06T05:35:56;97767.34;;;19.61;100.00
53270;BME280;39159;45.634;9.420;2023-08-06T05:38:21;97765.38;;;19.65;100.00
53270;BME280;39159;45.634;9.420;2023-08-06T05:40:46;97764.56;;;19.68;100.00
53270;BME280;39159;45.634;9.420;2023-08-06T05:43:12;97763.00;;;19.60;100.00
53270;BME280;39159;45.634;9.420;2023-08-06T05:45:38;97765.75;;;19.60;100.00
53270;BME280;39159;45.634;9.420;2023-08-06T05:48:03;97769.75;;;19.70;100.00
53270;BME280;39159;45.634;9.420;2023-08-06T05:50:29;97770.91;;;19.80;100.00
53270;BME280;39159;45.634;9.420;2023-08-06T05:52:54;97781.19;;;19.86;100.00
53270;BME280;39159;45.634;9.420;2023-08-06T05:55:20;97784.72;;;19.87;100.00
53270;BME280;39159;45.634;9.420;2023-08-06T05:57:45;97784.34;;;19.92;100.00
53270;BME280;39159;45.634;9.420;2023-08-06T06:00:11;97779.19;;;20.01;100.00
53270;BME280;39159;45.634;9.420;2023-08-06T06:02:37;97775.19;;;20.17;100.00
53270;BME280;39159;45.634;9.420;2023-08-06T06:05:02;97769.22;;;20.22;100.00
53270;BME280;39159;45.634;9.420;2023-08-06T06:07:28;97770.75;;;20.34;100.00
53270;BME280;39159;45.634;9.420;2023-08-06T06:09:53;97759.63;;;20.41;100.00
53270;BME280;39159;45.634;9.420;2023-08-06T06:12:18;97764.34;;;20.51;100.00
53270;BME280;39159;45.634;9.420;2023-08-06T06:14:44;97773.00;;;20.67;100.00
53270;BME280;39159;45.634;9.420;2023-08-06T06:17:10;97778.09;;;20.80;100.00
53270;BME280;39159;45.634;9.420;2023-08-06T06:19:35;97780.03;;;20.90;100.00
53270;BME280;39159;45.634;9.420;2023-08-06T06:22:00;97784.75;;;20.93;100.00
53270;BME280;39159;45.634;9.420;2023-08-06T06:24:26;97789.44;;;21.03;100.00
53270;BME280;39159;45.634;9.420;2023-08-06T06:26:51;97789.34;;;21.18;100.00
53270;BME280;39159;45.634;9.420;2023-08-06T06:29:17;97798.69;;;21.38;100.00
53270;BME280;39159;45.634;9.420;2023-08-06T06:31:42;97789.84;;;21.61;100.00
53270;BME280;39159;45.634;9.420;2023-08-06T06:34:08;97782.56;;;21.75;100.00
53270;BME280;39159;45.634;9.420;2023-08-06T13:20:12;97780.59;;;31.56;20.70
53270;BME280;39159;45.634;9.420;2023-08-06T13:22:38;97784.03;;;31.85;20.74
53270;BME280;39159;45.634;9.420;2023-08-06T13:25:03;97774.91;;;31.66;19.52
53270;BME280;39159;45.634;9.420;2023-08-06T13:27:29;97789.13;;;31.38;19.03
53270;BME280;39159;45.634;9.420;2023-08-06T13:29:54;97782.88;;;31.43;19.13
53270;BME280;39159;45.634;9.420;2023-08-06T13:32:20;97773.81;;;31.63;18.87
53270;BME280;39159;45.634;9.420;2023-08-06T13:34:56;97774.56;;;31.49;19.40
53270;BME280;39159;45.634;9.420;2023-08-06T13:37:22;97768.38;;;31.26;18.76
53270;BME280;39159;45.634;9.420;2023-08-06T13:39:47;97773.19;;;31.35;19.19
53270;BME280;39159;45.634;9.420;2023-08-06T13:42:12;97775.97;;;31.44;20.05
53270;BME280;39159;45.634;9.420;2023-08-06T13:44:38;97773.66;;;31.67;20.29
53270;BME280;39159;45.634;9.420;2023-08-06T13:47:03;97767.56;;;31.83;21.15
53270;BME280;39159;45.634;9.420;2023-08-06T13:49:29;97768.41;;;31.74;19.85
53270;BME280;39159;45.634;9.420;2023-08-06T13:51:54;97776.50;;;31.81;19.68
53270;BME280;39159;45.634;9.420;2023-08-06T13:54:20;97774.59;;;31.30;19.35
53270;BME280;39159;45.634;9.420;2023-08-06T13:56:46;97766.56;;;31.47;20.37
53270;BME280;39159;45.634;9.420;2023-08-06T13:59:11;97767.47;;;31.53;20.09
53270;BME280;39159;45.634;9.420;2023-08-06T14:01:38;97771.97;;;31.60;20.53
53270;BME280;39159;45.634;9.420;2023-08-06T14:04:04;97776.53;;;31.24;20.25
53270;BME280;39159;45.634;9.420;2023-08-06T14:06:29;97768.53;;;31.56;20.52
53270;BME280;39159;45.634;9.420;2023-08-06T14:08:56;97783.00;;;31.49;20.35
53270;BME280;39159;45.634;9.420;2023-08-06T14:11:22;97774.56;;;31.73;21.16
53270;BME280;39159;45.634;9.420;2023-08-06T14:13:47;97785.47;;;31.80;20.88
53270;BME280;39159;45.634;9.420;2023-08-06T14:16:13;97777.72;;;31.66;20.67
53270;BME280;39159;45.634;9.420;2023-08-06T14:18:38;97776.53;;;31.57;21.02
53270;BME280;39159;45.634;9.420;2023-08-06T14:21:04;97778.53;;;31.66;19.62
53270;BME280;39159;45.634;9.420;2023-08-06T14:23:30;97783.09;;;31.21;18.74
53270;BME280;39159;45.634;9.420;2023-08-06T14:25:55;97783.03;;;31.39;19.81
53270;BME280;39159;45.634;9.420;2023-08-06T14:28:20;97790.00;;;31.20;18.99
53270;BME280;39159;45.634;9.420;2023-08-06T14:30:46;97779.66;;;30.65;18.95
53270;BME280;39159;45.634;9.420;2023-08-06T14:33:11;97787.94;;;30.87;18.93
53270;BME280;39159;45.634;9.420;2023-08-06T14:35:37;97790.91;;;30.93;19.88
53270;BME280;39159;45.634;9.420;2023-08-06T14:38:02;97781.91;;;31.04;19.90
53270;BME280;39159;45.634;9.420;2023-08-06T14:40:28;97781.06;;;30.88;19.14
53270;BME280;39159;45.634;9.420;2023-08-06T14:42:59;97783.13;;;30.60;19.67
53270;BME280;39159;45.634;9.420;2023-08-06T14:45:24;97782.81;;;30.58;20.39
53270;BME280;39159;45.634;9.420;2023-08-06T14:47:50;97792.69;;;30.44;20.03
53270;BME280;39159;45.634;9.420;2023-08-06T14:50:15;97784.06;;;30.66;20.02
53270;BME280;39159;45.634;9.420;2023-08-06T14:52:41;97788.00;;;30.32;19.27
53270;BME280;39159;45.634;9.420;2023-08-06T14:55:07;97795.31;;;30.11;19.00
53270;BME280;39159;45.634;9.420;2023-08-06T14:57:32;97790.28;;;29.87;19.52
53270;BME280;39159;45.634;9.420;2023-08-06T14:59:58;97792.03;;;29.85;19.91
53270;BME280;39159;45.634;9.420;2023-08-06T15:02:23;97790.47;;;29.84;19.92
53270;BME280;39159;45.634;9.420;2023-08-06T15:07:24;97808.44;;;29.95;19.96
53270;BME280;39159;45.634;9.420;2023-08-06T15:09:49;97804.06;;;29.94;19.31
53270;BME280;39159;45.634;9.420;2023-08-06T15:12:15;97807.03;;;30.00;19.99
53270;BME280;39159;45.634;9.420;2023-08-06T15:14:42;97801.09;;;29.98;20.05
53270;BME280;39159;45.634;9.420;2023-08-06T15:17:07;97824.09;;;29.56;18.58
53270;BME280;39159;45.634;9.420;2023-08-06T15:19:33;97816.19;;;29.64;19.04
53270;BME280;39159;45.634;9.420;2023-08-06T15:21:58;97824.59;;;29.64;18.92
53270;BME280;39159;45.634;9.420;2023-08-06T15:24:24;97825.97;;;29.59;19.14
53270;BME280;39159;45.634;9.420;2023-08-06T15:26:49;97821.13;;;29.50;19.57
53270;BME280;39159;45.634;9.420;2023-08-06T15:29:15;97820.63;;;29.43;20.04
53270;BME280;39159;45.634;9.420;2023-08-06T15:31:40;97829.81;;;29.34;20.78
53270;BME280;39159;45.634;9.420;2023-08-06T15:34:06;97834.31;;;29.31;20.48
53270;BME280;39159;45.634;9.420;2023-08-06T15:36:35;97836.38;;;29.40;20.91
53270;BME280;39159;45.634;9.420;2023-08-06T15:39:02;97839.56;;;29.61;20.58
53270;BME280;39159;45.634;9.420;2023-08-06T15:41:29;97839.19;;;29.40;19.72
53270;BME280;39159;45.634;9.420;2023-08-06T15:43:54;97851.94;;;29.01;19.58
53270;BME280;39159;45.634;9.420;2023-08-06T15:46:20;97843.19;;;28.77;20.60
53270;BME280;39159;45.634;9.420;2023-08-06T15:48:45;97844.38;;;28.88;19.99
53270;BME280;39159;45.634;9.420;2023-08-06T15:51:11;97853.31;;;28.96;20.56
53270;BME280;39159;45.634;9.420;2023-08-06T15:53:36;97856.00;;;28.78;20.81
53270;BME280;39159;45.634;9.420;2023-08-06T15:56:02;97860.69;;;28.81;20.44
53270;BME280;39159;45.634;9.420;2023-08-06T15:58:28;97866.91;;;28.98;21.76
53270;BME280;39159;45.634;9.420;2023-08-06T16:00:53;97866.38;;;28.90;21.33
53270;BME280;39159;45.634;9.420;2023-08-06T16:03:19;97864.56;;;28.74;20.94
53270;BME280;39159;45.634;9.420;2023-08-06T16:05:44;97864.22;;;28.50;21.77
53270;BME280;39159;45.634;9.420;2023-08-06T16:08:10;97873.53;;;28.47;21.16
53270;BME280;39159;45.634;9.420;2023-08-06T16:10:35;97866.25;;;28.49;21.81
53270;BME280;39159;45.634;9.420;2023-08-06T16:13:01;97870.59;;;28.16;21.65
53270;BME280;39159;45.634;9.420;2023-08-06T16:15:28;97874.50;;;28.31;21.45
53270;BME280;39159;45.634;9.420;2023-08-06T16:17:53;97874.59;;;28.27;21.53
53270;BME280;39159;45.634;9.420;2023-08-06T16:20:18;97874.13;;;28.42;22.14
53270;BME280;39159;45.634;9.420;2023-08-06T16:22:44;97889.88;;;28.26;21.12
53270;BME280;39159;45.634;9.420;2023-08-06T16:25:09;97888.78;;;28.11;20.90
53270;BME280;39159;45.634;9.420;2023-08-06T16:27:38;97889.13;;;28.13;21.07
53270;BME280;39159;45.634;9.420;2023-08-06T16:30:04;97903.78;;;28.30;21.34
53270;BME280;39159;45.634;9.420;2023-08-06T16:32:30;97894.56;;;28.29;20.75
53270;BME280;39159;45.634;9.420;2023-08-06T16:34:55;97899.84;;;28.27;21.19
53270;BME280;39159;45.634;9.420;2023-08-06T16:37:21;97897.88;;;28.15;21.10
53270;BME280;39159;45.634;9.420;2023-08-06T16:39:48;97904.53;;;27.96;21.26
53270;BME280;39159;45.634;9.420;2023-08-06T16:42:14;97910.13;;;27.70;20.96
53270;BME280;39159;45.634;9.420;2023-08-06T16:44:39;97912.03;;;27.73;21.58
53270;BME280;39159;45.634;9.420;2023-08-06T16:47:06;97919.75;;;27.56;22.05
53270;BME280;39159;45.634;9.420;2023-08-06T16:49:31;97916.88;;;27.60;21.98
53270;BME280;39159;45.634;9.420;2023-08-06T16:51:57;97923.56;;;27.49;21.79
53270;BME280;39159;45.634;9.420;2023-08-06T16:54:22;97925.56;;;27.36;22.18
53270;BME280;39159;45.634;9.420;2023-08-06T16:56:48;97937.22;;;27.22;22.03
53270;BME280;39159;45.634;9.420;2023-08-06T16:59:13;97947.78;;;27.31;22.36
53270;BME280;39159;45.634;9.420;2023-08-06T17:01:38;97936.31;;;27.25;22.27
53270;BME280;39159;45.634;9.420;2023-08-06T17:04:05;97945.41;;;27.29;22.56
53270;BME280;39159;45.634;9.420;2023-08-06T17:06:30;97944.13;;;27.17;21.65
53270;BME280;39159;45.634;9.420;2023-08-06T17:08:56;97949.47;;;27.12;22.14
53270;BME280;39159;45.634;9.420;2023-08-06T17:11:21;97953.59;;;27.07;22.71
53270;BME280;39159;45.634;9.420;2023-08-06T17:13:47;97957.84;;;26.99;22.40
53270;BME280;39159;45.634;9.420;2023-08-06T17:16:12;97956.84;;;27.05;22.23
53270;BME280;39159;45.634;9.420;2023-08-06T17:18:38;97960.19;;;27.00;22.68
53270;BME280;39159;45.634;9.420;2023-08-06T17:21:04;97971.81;;;26.86;22.43
53270;BME280;39159;45.634;9.420;2023-08-06T17:23:30;97971.47;;;26.84;24.07
53270;BME280;39159;45.634;9.420;2023-08-06T17:25:55;97976.28;;;26.67;22.32
53270;BME280;39159;45.634;9.420;2023-08-06T17:28:21;97975.59;;;26.63;22.68
53270;BME280;39159;45.634;9.420;2023-08-06T17:30:47;97974.28;;;26.51;22.98
53270;BME280;39159;45.634;9.420;2023-08-06T17:33:13;97970.59;;;26.54;23.25
53270;BME280;39159;45.634;9.420;2023-08-06T17:35:42;97978.75;;;26.49;23.41
53270;BME280;39159;45.634;9.420;2023-08-06T17:38:12;97979.81;;;26.55;23.02
53270;BME280;39159;45.634;9.420;2023-08-06T17:40:38;97983.75;;;26.57;23.39
53270;BME280;39159;45.634;9.420;2023-08-06T17:43:03;97991.34;;;26.40;24.10
53270;BME280;39159;45.634;9.420;2023-08-06T17:45:29;97986.00;;;26.30;23.81
53270;BME280;39159;45.634;9.420;2023-08-06T17:47:54;97998.69;;;26.18;24.81
53270;BME280;39159;45.634;9.420;2023-08-06T17:50:20;97999.28;;;26.09;24.81
53270;BME280;39159;45.634;9.420;2023-08-06T17:52:46;98000.25;;;26.19;25.08
53270;BME280;39159;45.634;9.420;2023-08-06T17:55:12;98005.84;;;26.02;26.63
53270;BME280;39159;45.634;9.420;2023-08-06T17:57:37;98006.88;;;25.92;25.18
53270;BME280;39159;45.634;9.420;2023-08-06T18:00:03;98012.56;;;25.89;25.43
53270;BME280;39159;45.634;9.420;2023-08-06T18:02:28;98014.78;;;25.77;24.79
53270;BME280;39159;45.634;9.420;2023-08-06T18:04:54;98011.19;;;25.77;25.07
53270;BME280;39159;45.634;9.420;2023-08-06T18:07:19;98036.22;;;25.64;24.26
53270;BME280;39159;45.634;9.420;2023-08-06T18:09:45;98027.50;;;25.42;23.85
53270;BME280;39159;45.634;9.420;2023-08-06T18:12:10;98032.66;;;25.43;22.86
53270;BME280;39159;45.634;9.420;2023-08-06T18:14:36;98045.53;;;25.37;22.87
53270;BME280;39159;45.634;9.420;2023-08-06T18:17:02;98054.91;;;25.27;22.90
53270;BME280;39159;45.634;9.420;2023-08-06T18:19:27;98053.81;;;25.21;23.25
53270;BME280;39159;45.634;9.420;2023-08-06T18:21:53;98057.97;;;25.13;23.77
53270;BME280;39159;45.634;9.420;2023-08-06T18:24:18;98068.81;;;25.07;24.08
53270;BME280;39159;45.634;9.420;2023-08-06T18:26:44;98067.69;;;25.05;24.02
53270;BME280;39159;45.634;9.420;2023-08-06T18:29:10;98064.34;;;24.90;23.74
53270;BME280;39159;45.634;9.420;2023-08-06T18:31:35;98067.50;;;24.92;24.59
53270;BME280;39159;45.634;9.420;2023-08-06T18:34:02;98069.88;;;24.93;24.42
53270;BME280;39159;45.634;9.420;2023-08-06T18:36:28;98066.66;;;24.71;24.69
53270;BME280;39159;45.634;9.420;2023-08-06T18:38:55;98074.44;;;24.60;24.49
53270;BME280;39159;45.634;9.420;2023-08-06T18:41:20;98065.81;;;24.51;24.06
53270;BME280;39159;45.634;9.420;2023-08-06T18:43:46;98073.94;;;24.38;24.19
53270;BME280;39159;45.634;9.420;2023-08-06T18:46:11;98080.00;;;24.33;24.41
53270;BME280;39159;45.634;9.420;2023-08-06T18:48:36;98079.03;;;24.19;24.39
53270;BME280;39159;45.634;9.420;2023-08-06T18:51:02;98083.31;;;24.24;25.17
53270;BME280;39159;45.634;9.420;2023-08-06T18:53:27;98081.16;;;24.08;23.67
53270;BME280;39159;45.634;9.420;2023-08-06T18:55:53;98080.72;;;24.10;23.91
53270;BME280;39159;45.634;9.420;2023-08-06T18:58:19;98091.34;;;23.91;24.25
53270;BME280;39159;45.634;9.420;2023-08-06T19:00:44;98095.00;;;23.85;23.97
53270;BME280;39159;45.634;9.420;2023-08-06T19:03:10;98098.19;;;23.87;24.88
53270;BME280;39159;45.634;9.420;2023-08-06T19:05:37;98107.81;;;23.78;24.19
53270;BME280;39159;45.634;9.420;2023-08-06T19:08:06;98112.25;;;23.76;24.93
53270;BME280;39159;45.634;9.420;2023-08-06T19:10:32;98121.38;;;23.76;25.12
53270;BME280;39159;45.634;9.420;2023-08-06T19:12:59;98109.22;;;23.59;23.93
53270;BME280;39159;45.634;9.420;2023-08-06T19:15:25;98118.00;;;23.58;24.53
53270;BME280;39159;45.634;9.420;2023-08-06T19:17:52;98112.88;;;23.53;24.83
53270;BME280;39159;45.634;9.420;2023-08-06T19:20:17;98116.13;;;23.48;25.14
53270;BME280;39159;45.634;9.420;2023-08-06T19:22:43;98121.09;;;23.29;25.36
53270;BME280;39159;45.634;9.420;2023-08-06T19:25:08;98121.28;;;23.11;25.29
53270;BME280;39159;45.634;9.420;2023-08-06T19:27:34;98124.56;;;22.95;25.28
53270;BME280;39159;45.634;9.420;2023-08-06T19:30:01;98134.56;;;22.89;25.30
53270;BME280;39159;45.634;9.420;2023-08-06T19:32:27;98136.56;;;22.85;25.21
53270;BME280;39159;45.634;9.420;2023-08-06T19:34:52;98140.63;;;22.77;25.65
53270;BME280;39159;45.634;9.420;2023-08-06T19:37:18;98143.44;;;22.70;25.96
53270;BME280;39159;45.634;9.420;2023-08-06T19:39:43;98148.28;;;22.62;25.98